Time;durP1;ratioP1;P1;durP2;ratioP2;P2;SDS_P1;SDS_P2;PMS_P1;PMS_P2;Temp;Humidity;BMP_temperature;BMP_pressure;BME280_temperature;BME280_humidity;BME280_pressure;Samples;Min_cycle;Max_cycle;Signal;HPM_P1;HPM_P2
2023/12/27 00:04:01;;;;;;;6.45;2.28;;;4.70;99.90;;;;;;7368593;32;20111;-56
2023/12/27 00:08:03;;;;;;;3.42;1.85;;;4.60;99.90;;;;;;7360181;32;20190;-55
2023/12/27 00:12:05;;;;;;;6.47;1.73;;;4.50;99.90;;;;;;7364480;32;20335;-56
2023/12/27 00:16:07;;;;;;;6.12;1.83;;;4.40;99.90;;;;;;7365804;32;20125;-55
2023/12/27 00:20:09;;;;;;;9.07;1.92;;;4.40;99.90;;;;;;7358549;32;20115;-57
2023/12/27 00:24:11;;;;;;;11.73;2.20;;;4.30;99.90;;;;;;7369114;32;20099;-57
2023/12/27 00:28:13;;;;;;;6.07;2.17;;;4.20;99.90;;;;;;7369009;32;20092;-56
2023/12/27 00:32:15;;;;;;;13.50;2.30;;;4.30;99.90;;;;;;7362504;32;20123;-56
2023/12/27 00:36:20;;;;;;;8.10;2.15;;;4.10;99.90;;;;;;7361503;32;20493;-56
2023/12/27 00:40:22;;;;;;;9.02;2.08;;;4.00;99.90;;;;;;7370636;32;20294;-56
2023/12/27 00:44:24;;;;;;;8.00;1.90;;;3.90;99.90;;;;;;7365808;32;20551;-55
2023/12/27 00:48:25;;;;;;;5.50;1.62;;;3.80;99.90;;;;;;7359904;32;20135;-55
2023/12/27 00:52:27;;;;;;;7.75;1.90;;;3.80;99.90;;;;;;7363444;32;20841;-56
2023/12/27 00:56:29;;;;;;;7.78;2.28;;;3.60;99.90;;;;;;7360579;32;20140;-56
2023/12/27 01:00:31;;;;;;;6.87;2.05;;;3.50;99.90;;;;;;7357594;32;20156;-55
2023/12/27 01:04:33;;;;;;;8.50;2.12;;;3.50;99.90;;;;;;7361437;32;20201;-56
2023/12/27 01:08:36;;;;;;;9.55;1.92;;;3.50;99.90;;;;;;7358094;32;20207;-55
2023/12/27 01:12:37;;;;;;;7.22;2.30;;;3.40;99.90;;;;;;7364975;32;20189;-54
2023/12/27 01:16:39;;;;;;;7.20;1.70;;;3.30;99.90;;;;;;7363472;32;20142;-56
2023/12/27 01:20:41;;;;;;;11.43;2.17;;;3.30;99.90;;;;;;7364934;32;20117;-56
2023/12/27 01:24:43;;;;;;;5.55;2.05;;;3.20;99.90;;;;;;7365720;32;20174;-55
2023/12/27 01:28:44;;;;;;;4.93;1.90;;;3.20;99.90;;;;;;7362388;32;20146;-55
2023/12/27 01:32:46;;;;;;;6.68;1.90;;;3.20;99.90;;;;;;7358526;32;20362;-56
2023/12/27 01:36:48;;;;;;;9.15;1.90;;;3.20;99.90;;;;;;7367531;32;20241;-56
2023/12/27 01:40:51;;;;;;;7.28;2.10;;;3.10;99.90;;;;;;7367902;32;20123;-55
2023/12/27 01:44:52;;;;;;;11.07;2.33;;;3.10;99.90;;;;;;7359010;32;20128;-56
2023/12/27 01:48:54;;;;;;;7.28;2.00;;;3.10;99.90;;;;;;7360330;32;20110;-55
2023/12/27 01:52:56;;;;;;;7.30;2.30;;;3.10;99.90;;;;;;7364299;32;20656;-56
2023/12/27 01:56:58;;;;;;;7.80;2.12;;;3.10;99.90;;;;;;7362119;32;20181;-55
2023/12/27 02:01:03;;;;;;;8.48;2.22;;;3.20;99.90;;;;;;7362266;32;20169;-56
2023/12/27 02:05:06;;;;;;;11.23;3.08;;;3.10;99.90;;;;;;7365578;32;20572;-55
2023/12/27 02:09:07;;;;;;;8.38;2.80;;;3.20;99.90;;;;;;7363275;32;20437;-55
2023/12/27 02:13:09;;;;;;;12.02;2.78;;;3.10;99.90;;;;;;7360977;32;20172;-56
2023/12/27 02:17:11;;;;;;;7.07;2.72;;;3.10;99.90;;;;;;7361676;32;20135;-55
2023/12/27 02:21:13;;;;;;;10.68;2.75;;;3.10;99.90;;;;;;7357887;32;20497;-56
2023/12/27 02:25:16;;;;;;;13.30;3.47;;;3.20;99.90;;;;;;7362144;32;20288;-55
2023/12/27 02:29:17;;;;;;;18.65;3.60;;;3.40;99.90;;;;;;7360174;32;20108;-54
2023/12/27 02:33:19;;;;;;;18.37;3.58;;;3.50;99.90;;;;;;7360901;32;20228;-56
2023/12/27 02:37:21;;;;;;;11.32;3.70;;;3.60;99.90;;;;;;7364571;32;20505;-55
2023/12/27 02:41:23;;;;;;;14.25;4.40;;;3.60;99.90;;;;;;7366307;32;20283;-56
2023/12/27 02:45:24;;;;;;;12.02;3.22;;;3.70;99.90;;;;;;7357020;32;20218;-56
2023/12/27 02:49:26;;;;;;;8.98;2.80;;;3.70;99.90;;;;;;7354946;32;20264;-56
2023/12/27 02:53:28;;;;;;;12.48;3.15;;;3.70;99.90;;;;;;7362778;32;20526;-57
2023/12/27 02:57:30;;;;;;;8.77;2.70;;;3.70;99.90;;;;;;7365956;32;20260;-56
2023/12/27 03:01:32;;;;;;;12.02;3.42;;;3.60;99.90;;;;;;7351904;32;20495;-56
2023/12/27 03:05:33;;;;;;;12.25;2.80;;;3.60;99.90;;;;;;7365776;32;20151;-55
2023/12/27 03:09:35;;;;;;;10.70;2.70;;;3.50;99.90;;;;;;7363553;32;20229;-56
2023/12/27 03:13:37;;;;;;;7.78;2.50;;;3.30;99.90;;;;;;7365615;32;20102;-56
2023/12/27 03:17:39;;;;;;;9.73;2.92;;;3.20;99.90;;;;;;7364740;32;20502;-54
2023/12/27 03:21:41;;;;;;;6.25;2.50;;;3.20;99.90;;;;;;7359862;32;20152;-55
2023/12/27 03:25:43;;;;;;;9.00;2.50;;;3.10;99.90;;;;;;7365353;32;20195;-56
2023/12/27 03:29:44;;;;;;;7.93;2.95;;;3.10;99.90;;;;;;7360671;32;20297;-55
2023/12/27 03:33:46;;;;;;;11.88;2.50;;;3.10;99.90;;;;;;7366549;32;20218;-56
2023/12/27 03:37:48;;;;;;;9.50;3.00;;;3.10;99.90;;;;;;7359339;32;20206;-55
2023/12/27 03:41:50;;;;;;;11.85;2.97;;;3.10;99.90;;;;;;7366097;32;20294;-56
2023/12/27 03:45:54;;;;;;;7.57;2.97;;;3.10;99.90;;;;;;7364880;32;20560;-55
2023/12/27 03:49:55;;;;;;;9.18;2.55;;;3.20;99.90;;;;;;7369544;32;20154;-56
2023/12/27 03:53:57;;;;;;;7.35;2.67;;;3.20;99.90;;;;;;7373371;32;20222;-55
2023/12/27 03:57:59;;;;;;;7.35;2.80;;;3.20;99.90;;;;;;7363633;32;20234;-55
2023/12/27 04:02:01;;;;;;;8.02;2.70;;;3.10;99.90;;;;;;7362418;32;20218;-55
2023/12/27 04:06:03;;;;;;;8.93;3.15;;;3.10;99.90;;;;;;7368302;32;20186;-55
2023/12/27 04:10:06;;;;;;;10.88;3.08;;;3.10;99.90;;;;;;7367511;32;20156;-55
2023/12/27 04:14:08;;;;;;;9.38;3.08;;;3.10;99.90;;;;;;7359114;32;20125;-54
2023/12/27 04:18:11;;;;;;;5.78;2.60;;;3.00;99.90;;;;;;7364842;32;20184;-55
2023/12/27 04:22:13;;;;;;;11.57;3.10;;;3.10;99.90;;;;;;7365604;32;20131;-56
2023/12/27 04:26:15;;;;;;;12.45;3.72;;;3.20;99.90;;;;;;7357489;32;20126;-55
2023/12/27 04:30:17;;;;;;;8.30;3.17;;;3.20;99.90;;;;;;7359408;32;20315;-57
2023/12/27 04:34:19;;;;;;;13.93;3.42;;;3.30;99.90;;;;;;7371485;32;20098;-55
2023/12/27 04:38:21;;;;;;;17.20;3.20;;;3.40;99.90;;;;;;7363946;32;20127;-55
2023/12/27 04:42:23;;;;;;;17.12;3.35;;;3.70;99.90;;;;;;7359739;32;20103;-56
2023/12/27 04:46:25;;;;;;;15.18;3.12;;;3.90;99.90;;;;;;7363804;32;20125;-55
2023/12/27 04:50:26;;;;;;;11.10;3.12;;;4.10;99.90;;;;;;7362238;32;20111;-55
2023/12/27 04:54:28;;;;;;;8.57;2.80;;;4.40;99.90;;;;;;7367896;32;20342;-56
2023/12/27 04:58:35;;;;;;;13.48;2.42;;;4.60;99.90;;;;;;7361885;32;20680;-57
2023/12/27 05:02:37;;;;;;;;;;;4.80;99.90;;;;;;7357789;32;20158;-58
2023/12/27 05:06:38;;;;;;;13.27;2.15;;;4.90;99.90;;;;;;7363326;32;20014;-55
2023/12/27 05:10:40;;;;;;;8.68;2.75;;;5.00;99.90;;;;;;7367225;32;20543;-55
2023/12/27 05:14:43;;;;;;;11.60;2.25;;;5.10;99.90;;;;;;7357610;32;20318;-56
2023/12/27 05:18:45;;;;;;;9.93;2.40;;;5.10;99.90;;;;;;7364524;32;20111;-56
2023/12/27 05:22:47;;;;;;;11.02;2.10;;;5.20;99.90;;;;;;7360580;32;20156;-58
2023/12/27 05:26:49;;;;;;;12.13;2.40;;;5.30;99.90;;;;;;7363477;32;20445;-56
2023/12/27 05:30:51;;;;;;;18.30;2.60;;;5.30;99.90;;;;;;7358912;32;20229;-56
2023/12/27 05:34:53;;;;;;;11.32;2.50;;;5.40;99.90;;;;;;7363866;32;20491;-56
2023/12/27 05:38:54;;;;;;;8.52;1.98;;;5.50;99.90;;;;;;7365270;32;20548;-55
2023/12/27 05:42:56;;;;;;;9.23;2.20;;;5.70;99.90;;;;;;7356738;32;20126;-55
2023/12/27 05:47:00;;;;;;;11.27;3.25;;;5.80;99.90;;;;;;7357667;32;20191;-55
2023/12/27 05:51:02;;;;;;;8.23;1.80;;;5.80;99.90;;;;;;7358775;32;20213;-55
2023/12/27 05:55:05;;;;;;;8.88;2.20;;;5.90;99.90;;;;;;7355854;32;20270;-56
2023/12/27 05:59:07;;;;;;;9.70;2.05;;;5.90;99.90;;;;;;7359487;32;20133;-57
2023/12/27 06:03:10;;;;;;;10.95;2.22;;;6.00;99.90;;;;;;7357485;32;20119;-56
2023/12/27 06:07:12;;;;;;;9.10;2.03;;;6.10;99.90;;;;;;7358734;32;20095;-55
2023/12/27 06:11:13;;;;;;;7.18;2.08;;;6.20;99.90;;;;;;7353333;32;20521;-57
2023/12/27 06:15:15;;;;;;;13.80;2.30;;;6.20;99.90;;;;;;7349411;32;20687;-55
2023/12/27 06:19:17;;;;;;;8.65;2.15;;;6.30;99.90;;;;;;7346595;32;20107;-55
2023/12/27 06:23:19;;;;;;;7.00;2.35;;;6.30;99.90;;;;;;7360311;32;20821;-56
2023/12/27 06:27:20;;;;;;;6.32;1.90;;;6.40;99.90;;;;;;7357498;32;20248;-56
2023/12/27 06:31:22;;;;;;;8.20;2.10;;;6.40;99.90;;;;;;7366388;32;20111;-55
2023/12/27 06:35:28;;;;;;;6.75;2.15;;;6.50;99.90;;;;;;7361895;32;20237;-55
2023/12/27 06:39:30;;;;;;;6.60;2.40;;;6.60;99.90;;;;;;7367050;32;20209;-56
2023/12/27 06:43:32;;;;;;;5.37;2.08;;;6.60;99.90;;;;;;7363662;32;20123;-55
2023/12/27 06:47:35;;;;;;;11.73;2.70;;;6.60;99.90;;;;;;7362068;32;20133;-55
2023/12/27 06:51:37;;;;;;;5.93;2.40;;;6.70;99.90;;;;;;7366194;32;20111;-58
2023/12/27 06:55:39;;;;;;;5.03;2.45;;;6.60;99.90;;;;;;7365413;32;20111;-56
2023/12/27 06:59:41;;;;;;;5.85;2.37;;;6.70;99.90;;;;;;7366363;32;20710;-56
2023/12/27 07:03:42;;;;;;;7.15;2.92;;;6.70;99.90;;;;;;7365170;32;20242;-57
2023/12/27 07:07:46;;;;;;;8.95;2.65;;;6.70;99.90;;;;;;7361760;32;20174;-56
2023/12/27 07:11:48;;;;;;;7.72;3.20;;;6.70;99.90;;;;;;7358328;32;20270;-57
2023/12/27 07:15:50;;;;;;;7.57;2.72;;;6.80;99.90;;;;;;7364086;32;20095;-56
2023/12/27 07:19:51;;;;;;;11.45;3.22;;;6.80;99.90;;;;;;7359744;32;20458;-57
2023/12/27 07:23:54;;;;;;;7.97;3.05;;;6.70;99.90;;;;;;7359179;32;20160;-56
2023/12/27 07:27:56;;;;;;;8.45;2.65;;;6.90;99.90;;;;;;7365952;32;20549;-56
2023/12/27 07:31:58;;;;;;;5.35;2.80;;;6.90;99.90;;;;;;7354205;32;20713;-57
2023/12/27 07:36:00;;;;;;;8.43;2.97;;;6.90;99.90;;;;;;7359066;32;20599;-57
2023/12/27 07:40:03;;;;;;;7.65;2.90;;;7.00;99.90;;;;;;7372503;32;20145;-59
2023/12/27 07:44:04;;;;;;;12.20;3.00;;;6.90;99.90;;;;;;7362263;32;20107;-58
2023/12/27 07:48:06;;;;;;;9.95;3.08;;;7.10;99.90;;;;;;7358898;32;20172;-59
2023/12/27 07:52:08;;;;;;;6.57;3.15;;;7.00;99.90;;;;;;7359378;32;20205;-59
2023/12/27 07:56:13;;;;;;;7.00;2.72;;;7.10;99.90;;;;;;7356814;32;20131;-58
2023/12/27 08:00:16;;;;;;;8.23;2.90;;;7.00;99.90;;;;;;7359975;32;20341;-60
2023/12/27 08:04:17;;;;;;;9.77;3.22;;;7.00;99.90;;;;;;7356525;32;20212;-61
2023/12/27 08:08:19;;;;;;;8.35;2.90;;;7.00;99.90;;;;;;7356186;32;20374;-60
2023/12/27 08:12:21;;;;;;;8.90;2.55;;;7.00;99.90;;;;;;7364095;32;20224;-59
2023/12/27 08:16:23;;;;;;;9.98;3.17;;;7.10;99.90;;;;;;7339540;32;20189;-60
2023/12/27 08:20:25;;;;;;;7.65;2.40;;;7.10;99.90;;;;;;7348714;32;20687;-60
2023/12/27 08:24:27;;;;;;;8.93;2.42;;;7.10;99.90;;;;;;7363828;32;20198;-61
2023/12/27 08:28:30;;;;;;;7.15;2.12;;;7.20;99.90;;;;;;7356496;32;20182;-59
2023/12/27 08:32:32;;;;;;;7.53;2.40;;;7.20;99.90;;;;;;7355315;32;20210;-59
2023/12/27 08:36:34;;;;;;;4.80;2.40;;;7.30;99.90;;;;;;7353403;32;20246;-59
2023/12/27 08:40:36;;;;;;;9.32;2.60;;;7.30;99.90;;;;;;7356430;32;20596;-59
2023/12/27 08:44:38;;;;;;;6.35;2.50;;;7.30;99.90;;;;;;7356455;32;20537;-59
2023/12/27 08:48:39;;;;;;;7.55;2.10;;;7.40;99.90;;;;;;7359490;32;20110;-59
2023/12/27 08:52:42;;;;;;;7.53;2.40;;;7.40;99.90;;;;;;7361520;32;20190;-58
2023/12/27 08:56:43;;;;;;;4.25;2.17;;;7.40;99.90;;;;;;7360847;32;20208;-58
2023/12/27 09:00:45;;;;;;;4.75;1.90;;;7.40;99.90;;;;;;7352185;32;20102;-58
2023/12/27 09:04:47;;;;;;;5.95;1.90;;;7.50;99.90;;;;;;7354711;32;20205;-57
2023/12/27 09:08:49;;;;;;;7.68;2.20;;;7.60;99.90;;;;;;7361513;32;20525;-57
2023/12/27 09:12:51;;;;;;;11.52;2.47;;;7.50;99.90;;;;;;7347795;32;20226;-57
2023/12/27 09:16:52;;;;;;;6.70;2.10;;;7.70;99.90;;;;;;7359145;32;20242;-57
2023/12/27 09:20:54;;;;;;;7.55;2.20;;;7.70;99.90;;;;;;7354431;32;20209;-58
2023/12/27 09:24:56;;;;;;;7.68;2.37;;;7.80;99.90;;;;;;7348760;32;20818;-59
2023/12/27 09:28:58;;;;;;;4.75;1.60;;;7.70;99.90;;;;;;7364585;32;20680;-59
2023/12/27 09:33:00;;;;;;;6.60;2.17;;;7.90;99.90;;;;;;7354895;32;20892;-58
2023/12/27 09:37:05;;;;;;;6.93;1.85;;;8.10;99.90;;;;;;7356460;32;20178;-58
2023/12/27 09:41:07;;;;;;;3.60;1.90;;;8.00;99.90;;;;;;7356796;32;20406;-59
2023/12/27 09:45:16;;;;;;;2.65;1.60;;;8.10;99.90;;;;;;7362582;32;20573;-57
2023/12/27 09:49:20;;;;;;;4.53;1.60;;;8.20;99.90;;;;;;7353222;32;20438;-56
2023/12/27 09:53:22;;;;;;;4.07;1.60;;;8.20;99.90;;;;;;7361740;32;20646;-57
2023/12/27 09:57:25;;;;;;;5.72;1.50;;;8.20;99.90;;;;;;7364764;32;20242;-57
2023/12/27 10:01:29;;;;;;;2.47;1.45;;;8.20;99.90;;;;;;7364041;32;20141;-58
2023/12/27 10:05:49;;;;;;;3.80;1.87;;;8.20;99.90;;;;;;7360040;32;20198;-58
2023/12/27 10:09:53;;;;;;;4.15;1.42;;;8.30;99.90;;;;;;7367480;32;20364;-57
2023/12/27 10:13:54;;;;;;;3.53;1.50;;;8.30;99.90;;;;;;7363357;32;20200;-58
2023/12/27 10:17:56;;;;;;;2.90;1.65;;;8.30;99.90;;;;;;7360525;32;20172;-58
2023/12/27 10:22:00;;;;;;;4.72;1.75;;;8.30;99.90;;;;;;7362054;32;20728;-58
2023/12/27 10:26:03;;;;;;;3.65;1.73;;;8.30;99.90;;;;;;7360038;32;20308;-57
2023/12/27 10:30:07;;;;;;;4.50;1.80;;;8.30;99.90;;;;;;7353085;32;20178;-57
2023/12/27 10:34:09;;;;;;;4.03;1.77;;;8.40;99.90;;;;;;7363037;32;20174;-59
2023/12/27 10:38:11;;;;;;;3.35;1.60;;;8.50;99.90;;;;;;7356308;32;20115;-58
2023/12/27 10:42:16;;;;;;;4.50;1.50;;;8.40;99.90;;;;;;7358230;32;20131;-58
2023/12/27 10:46:19;;;;;;;2.73;1.63;;;8.50;99.90;;;;;;7353033;32;20613;-59
2023/12/27 10:50:21;;;;;;;3.28;1.37;;;8.70;99.90;;;;;;7350798;32;20122;-58
2023/12/27 10:54:25;;;;;;;2.47;1.50;;;8.70;99.90;;;;;;7360893;32;20174;-56
2023/12/27 10:58:30;;;;;;;3.83;1.50;;;8.80;99.90;;;;;;7351246;32;20229;-57
2023/12/27 11:02:32;;;;;;;2.50;1.23;;;8.90;99.90;;;;;;7341322;32;20919;-57
2023/12/27 11:06:39;;;;;;;3.28;1.10;;;8.90;99.90;;;;;;7350712;32;20219;-57
2023/12/27 11:10:44;;;;;;;3.43;0.90;;;8.90;99.90;;;;;;7352831;32;20370;-58
2023/12/27 11:14:48;;;;;;;2.75;1.00;;;9.00;99.90;;;;;;7348143;32;20588;-57
2023/12/27 11:18:52;;;;;;;3.55;1.23;;;9.00;99.90;;;;;;7354226;32;20767;-58
2023/12/27 11:22:54;;;;;;;2.12;1.00;;;9.10;99.90;;;;;;7360430;32;20181;-57
2023/12/27 11:27:04;;;;;;;4.45;1.25;;;9.10;99.90;;;;;;7360867;32;20186;-56
2023/12/27 11:31:06;;;;;;;1.83;1.02;;;9.10;99.90;;;;;;7357889;32;20103;-56
2023/12/27 11:35:27;;;;;;;2.78;1.15;;;9.20;99.90;;;;;;7362415;32;20141;-57
2023/12/27 11:39:30;;;;;;;2.78;1.00;;;9.20;99.90;;;;;;7367458;32;20123;-58
2023/12/27 11:43:53;;;;;;;5.00;1.02;;;9.30;99.90;;;;;;7366080;32;20173;-57
2023/12/27 11:47:55;;;;;;;1.65;1.05;;;9.30;99.90;;;;;;7362072;32;20508;-57
2023/12/27 11:51:59;;;;;;;1.70;0.80;;;9.40;99.90;;;;;;7357527;32;20095;-57
2023/12/27 11:56:02;;;;;;;2.12;1.00;;;9.50;99.90;;;;;;7360888;32;20100;-57
2023/12/27 12:00:05;;;;;;;2.67;1.12;;;9.40;99.90;;;;;;7361518;32;20099;-58
2023/12/27 12:04:25;;;;;;;1.70;0.95;;;9.30;99.90;;;;;;7372308;32;20099;-59
2023/12/27 12:08:54;;;;;;;2.08;0.90;;;9.50;99.90;;;;;;7369884;32;20121;-57
2023/12/27 12:12:59;;;;;;;2.25;0.98;;;9.40;99.90;;;;;;7364887;32;20449;-58
2023/12/27 12:17:01;;;;;;;3.65;1.10;;;9.40;99.90;;;;;;7367410;32;20214;-58
2023/12/27 12:21:05;;;;;;;1.83;1.02;;;9.40;99.90;;;;;;7367470;32;20193;-57
2023/12/27 12:25:08;;;;;;;2.80;1.00;;;9.40;99.90;;;;;;7362889;32;20118;-56
2023/12/27 12:29:09;;;;;;;1.70;1.02;;;9.50;99.90;;;;;;7368799;32;20187;-57
2023/12/27 12:33:11;;;;;;;4.15;1.05;;;9.40;99.90;;;;;;7356448;32;20168;-56
2023/12/27 12:37:14;;;;;;;1.58;1.00;;;9.40;99.90;;;;;;7352362;32;20457;-57
2023/12/27 12:41:16;;;;;;;3.05;1.17;;;9.40;99.90;;;;;;7350404;32;20131;-57
2023/12/27 12:45:18;;;;;;;2.53;1.20;;;9.40;99.90;;;;;;7358862;32;20173;-57
2023/12/27 12:49:20;;;;;;;2.60;1.25;;;9.40;99.90;;;;;;7353116;32;20252;-57
2023/12/27 12:53:23;;;;;;;4.55;1.10;;;9.30;99.90;;;;;;7358744;32;20257;-58
2023/12/27 12:57:25;;;;;;;2.87;1.30;;;9.30;99.90;;;;;;7350901;32;20292;-58
2023/12/27 13:01:28;;;;;;;3.10;0.90;;;9.40;99.90;;;;;;7353239;32;20242;-58
2023/12/27 13:05:29;;;;;;;4.00;0.95;;;9.40;99.90;;;;;;7355196;32;20680;-57
2023/12/27 13:09:31;;;;;;;2.55;0.98;;;9.50;99.90;;;;;;7357352;32;20317;-58
2023/12/27 13:13:34;;;;;;;1.80;0.90;;;9.50;99.90;;;;;;7353929;32;20181;-58
2023/12/27 13:17:36;;;;;;;3.37;0.90;;;9.60;99.90;;;;;;7358085;32;21430;-59
2023/12/27 13:21:37;;;;;;;2.97;1.10;;;9.60;99.90;;;;;;7359612;32;20166;-57
2023/12/27 13:25:39;;;;;;;1.52;0.80;;;9.60;99.90;;;;;;7359035;32;20524;-57
2023/12/27 13:29:42;;;;;;;1.90;0.90;;;9.70;99.90;;;;;;7371417;32;20715;-57
2023/12/27 13:33:44;;;;;;;4.30;1.33;;;9.80;99.90;;;;;;7364912;32;20623;-57
2023/12/27 13:37:46;;;;;;;1.15;0.70;;;9.80;99.90;;;;;;7369747;32;20111;-57
2023/12/27 13:41:47;;;;;;;2.83;0.80;;;9.80;99.90;;;;;;7361655;32;20114;-57
2023/12/27 13:45:49;;;;;;;2.55;1.00;;;9.80;99.90;;;;;;7361213;32;20805;-57
2023/12/27 13:49:51;;;;;;;1.60;0.68;;;9.80;99.90;;;;;;7367319;32;20143;-56
2023/12/27 13:53:53;;;;;;;5.90;0.70;;;9.80;99.90;;;;;;7361734;32;20141;-57
2023/12/27 13:57:55;;;;;;;1.87;0.60;;;9.80;99.90;;;;;;7367579;32;20158;-57
2023/12/27 14:01:57;;;;;;;2.95;0.88;;;9.70;99.90;;;;;;7362471;32;20133;-57
2023/12/27 14:05:59;;;;;;;2.50;0.90;;;9.70;99.90;;;;;;7365129;32;20745;-57
2023/12/27 14:10:04;;;;;;;2.85;0.85;;;9.60;99.90;;;;;;7362559;32;20111;-56
2023/12/27 14:14:06;;;;;;;3.33;1.00;;;9.60;99.90;;;;;;7361300;32;20555;-57
2023/12/27 14:18:08;;;;;;;2.35;0.75;;;9.60;99.90;;;;;;7364015;32;20433;-57
2023/12/27 14:22:13;;;;;;;1.77;0.62;;;9.50;99.90;;;;;;7366161;32;20211;-57
2023/12/27 14:26:15;;;;;;;4.97;0.95;;;9.50;99.90;;;;;;7363963;32;20130;-57
2023/12/27 14:30:17;;;;;;;3.25;1.00;;;9.50;99.90;;;;;;7364061;32;20834;-57
2023/12/27 14:34:19;;;;;;;4.05;1.02;;;9.50;99.90;;;;;;7353197;32;20219;-57
2023/12/27 14:38:21;;;;;;;5.07;0.95;;;9.40;99.90;;;;;;7351666;32;20639;-56
2023/12/27 14:42:23;;;;;;;5.00;1.20;;;9.40;99.90;;;;;;7347565;32;20111;-59
2023/12/27 14:46:27;;;;;;;5.10;1.20;;;9.40;99.90;;;;;;7348815;32;20221;-58
2023/12/27 14:50:28;;;;;;;7.62;1.20;;;9.30;99.90;;;;;;7347899;32;20785;-59
2023/12/27 14:54:31;;;;;;;3.37;0.88;;;9.30;99.90;;;;;;7348017;32;20217;-57
2023/12/27 14:58:32;;;;;;;4.03;1.15;;;9.30;99.90;;;;;;7366949;32;20087;-58
2023/12/27 15:02:34;;;;;;;3.47;1.05;;;9.20;99.90;;;;;;7361796;32;20168;-58
2023/12/27 15:06:36;;;;;;;4.85;1.40;;;9.10;99.90;;;;;;7362642;32;20270;-56
2023/12/27 15:10:38;;;;;;;4.82;1.20;;;9.10;99.90;;;;;;7363215;32;20107;-55
2023/12/27 15:14:40;;;;;;;3.55;1.02;;;9.00;99.90;;;;;;7364821;32;20129;-58
2023/12/27 15:18:43;;;;;;;4.57;1.10;;;9.10;99.90;;;;;;7365058;32;20127;-56
2023/12/27 15:22:45;;;;;;;5.32;1.52;;;9.00;99.90;;;;;;7364584;32;20172;-56
2023/12/27 15:26:48;;;;;;;3.37;1.20;;;8.90;99.90;;;;;;7359946;32;20441;-56
2023/12/27 15:30:50;;;;;;;4.43;1.20;;;8.90;99.90;;;;;;7367790;32;20193;-55
2023/12/27 15:34:52;;;;;;;4.28;1.20;;;8.80;99.90;;;;;;7367369;32;20861;-55
2023/12/27 15:38:55;;;;;;;5.00;1.10;;;8.80;99.90;;;;;;7363992;32;20182;-56
2023/12/27 15:42:57;;;;;;;9.18;1.33;;;8.80;99.90;;;;;;7358571;32;20130;-63
2023/12/27 15:47:01;;;;;;;3.78;1.10;;;8.90;99.90;;;;;;7359513;32;20131;-63
2023/12/27 15:51:02;;;;;;;7.95;1.50;;;9.00;99.90;;;;;;7364058;32;20119;-56
2023/12/27 15:55:05;;;;;;;4.62;1.15;;;8.90;99.90;;;;;;7366715;32;20593;-56
2023/12/27 15:59:07;;;;;;;2.67;1.00;;;8.80;99.90;;;;;;7369538;32;20141;-56
2023/12/27 16:03:09;;;;;;;4.18;1.20;;;8.80;99.90;;;;;;7360371;32;20171;-56
2023/12/27 16:07:11;;;;;;;9.07;1.50;;;8.60;99.90;;;;;;7362081;32;20111;-56
2023/12/27 16:11:12;;;;;;;6.53;1.48;;;8.60;99.90;;;;;;7362561;32;20133;-56
2023/12/27 16:15:14;;;;;;;6.05;1.45;;;8.50;99.90;;;;;;7360454;32;20308;-56
2023/12/27 16:19:16;;;;;;;6.95;1.23;;;8.50;99.90;;;;;;7362954;32;20174;-56
2023/12/27 16:23:18;;;;;;;4.85;1.55;;;8.50;99.90;;;;;;7362509;32;20136;-56
2023/12/27 16:27:20;;;;;;;4.35;1.40;;;8.40;99.90;;;;;;7360287;32;20103;-56
2023/12/27 16:31:21;;;;;;;5.30;1.55;;;8.40;99.90;;;;;;7364453;32;20161;-57
2023/12/27 16:35:23;;;;;;;2.78;1.45;;;8.40;99.90;;;;;;7360999;32;20134;-56
2023/12/27 16:39:25;;;;;;;5.45;1.40;;;8.30;99.90;;;;;;7360561;32;20233;-57
2023/12/27 16:43:35;;;;;;;9.80;1.80;;;8.30;99.90;;;;;;7356420;32;20461;-56
2023/12/27 16:47:42;;;;;;;6.05;1.50;;;8.20;99.90;;;;;;7363678;32;20226;-57
2023/12/27 16:51:44;;;;;;;4.87;1.60;;;8.20;99.90;;;;;;7360476;32;20156;-56
2023/12/27 16:55:46;;;;;;;2.92;1.40;;;8.20;99.90;;;;;;7357628;32;20520;-55
2023/12/27 16:59:48;;;;;;;7.55;2.00;;;8.20;99.90;;;;;;7363610;32;20258;-56
2023/12/27 17:03:51;;;;;;;8.00;1.40;;;8.10;99.90;;;;;;7364732;32;20211;-56
2023/12/27 17:07:53;;;;;;;5.12;1.90;;;8.10;99.90;;;;;;7361780;32;20337;-56
2023/12/27 17:11:55;;;;;;;5.37;2.10;;;8.10;99.90;;;;;;7363709;32;20158;-55
2023/12/27 17:15:57;;;;;;;3.90;1.70;;;8.00;99.90;;;;;;7359766;32;20158;-57
2023/12/27 17:20:00;;;;;;;5.85;1.98;;;8.00;99.90;;;;;;7362525;32;20145;-57
2023/12/27 17:24:02;;;;;;;6.80;1.65;;;8.00;99.90;;;;;;7362009;32;20107;-57
2023/12/27 17:28:04;;;;;;;4.82;1.45;;;8.00;99.90;;;;;;7364357;32;20261;-57
2023/12/27 17:32:05;;;;;;;5.80;1.60;;;8.00;99.90;;;;;;7360393;32;20213;-57
2023/12/27 17:36:07;;;;;;;9.25;1.95;;;8.00;99.90;;;;;;7363949;32;20171;-55
2023/12/27 17:40:09;;;;;;;4.07;1.70;;;8.00;99.90;;;;;;7360719;32;20103;-56
2023/12/27 17:44:11;;;;;;;4.97;1.85;;;8.00;99.90;;;;;;7364699;32;20276;-57
2023/12/27 17:48:13;;;;;;;5.32;1.98;;;8.00;99.90;;;;;;7364585;32;20115;-56
2023/12/27 17:52:15;;;;;;;8.02;1.95;;;8.00;99.90;;;;;;7358795;32;20153;-57
2023/12/27 17:56:17;;;;;;;5.87;2.35;;;7.90;99.90;;;;;;7357537;32;20572;-57
2023/12/27 18:00:19;;;;;;;5.62;1.65;;;7.90;99.90;;;;;;7365357;32;20170;-55
2023/12/27 18:04:22;;;;;;;6.47;1.77;;;7.90;99.90;;;;;;7362580;32;20171;-56
2023/12/27 18:08:24;;;;;;;6.12;1.70;;;7.90;99.90;;;;;;7361560;32;20155;-56
2023/12/27 18:12:26;;;;;;;6.72;1.67;;;7.90;99.90;;;;;;7366031;32;20137;-56
2023/12/27 18:16:29;;;;;;;8.98;1.90;;;7.90;99.90;;;;;;7357527;32;20103;-56
2023/12/27 18:20:31;;;;;;;5.10;1.92;;;7.90;99.90;;;;;;7361586;32;20202;-55
2023/12/27 18:24:37;;;;;;;4.40;1.73;;;7.80;99.90;;;;;;7354244;32;20198;-55
2023/12/27 18:28:39;;;;;;;4.90;1.52;;;7.80;99.90;;;;;;7356601;32;20113;-56
2023/12/27 18:32:41;;;;;;;4.22;1.77;;;7.80;99.90;;;;;;7352985;32;20095;-54
2023/12/27 18:36:44;;;;;;;5.15;1.42;;;7.80;99.90;;;;;;7341566;32;20209;-56
2023/12/27 18:40:46;;;;;;;6.53;1.70;;;7.80;99.90;;;;;;7350915;32;20099;-57
2023/12/27 18:44:48;;;;;;;3.70;1.70;;;7.80;99.90;;;;;;7351506;32;20169;-56
2023/12/27 18:48:50;;;;;;;4.53;1.70;;;7.90;99.90;;;;;;7351808;32;20193;-57
2023/12/27 18:52:52;;;;;;;5.70;1.50;;;7.80;99.90;;;;;;7349340;32;20224;-56
2023/12/27 18:56:53;;;;;;;4.93;1.45;;;7.90;99.90;;;;;;7352355;32;20262;-57
2023/12/27 19:00:57;;;;;;;5.80;1.83;;;8.00;99.90;;;;;;7358669;32;20202;-56
2023/12/27 19:04:59;;;;;;;3.05;1.45;;;7.80;99.90;;;;;;7351417;32;20190;-57
2023/12/27 19:09:01;;;;;;;3.87;1.50;;;7.70;99.90;;;;;;7350828;32;20137;-56
2023/12/27 19:13:03;;;;;;;4.62;1.33;;;7.80;99.90;;;;;;7345502;32;20493;-57
2023/12/27 19:17:09;;;;;;;5.20;1.50;;;7.90;99.90;;;;;;7351956;32;20191;-66
2023/12/27 19:21:14;;;;;;;6.97;1.70;;;8.20;99.90;;;;;;7357199;32;20110;-66
2023/12/27 19:25:16;;;;;;;7.85;2.20;;;8.40;99.90;;;;;;7347118;32;20247;-56
2023/12/27 19:29:17;;;;;;;5.28;1.95;;;8.20;99.90;;;;;;7353781;32;20436;-56
2023/12/27 19:33:19;;;;;;;4.32;1.75;;;8.10;99.90;;;;;;7367768;32;20183;-55
2023/12/27 19:37:21;;;;;;;3.67;1.45;;;8.10;99.90;;;;;;7360143;32;20279;-55
2023/12/27 19:41:23;;;;;;;3.72;1.92;;;8.00;99.90;;;;;;7361568;32;20159;-56
2023/12/27 19:45:24;;;;;;;9.50;1.77;;;8.00;99.90;;;;;;7358700;32;20260;-55
2023/12/27 19:49:26;;;;;;;5.50;1.62;;;8.00;99.90;;;;;;7360139;32;20091;-56
2023/12/27 19:53:28;;;;;;;5.60;1.35;;;8.00;99.90;;;;;;7366188;32;20225;-57
2023/12/27 19:57:30;;;;;;;3.75;1.70;;;8.00;99.90;;;;;;7361390;32;20730;-56
2023/12/27 20:01:32;;;;;;;3.37;1.65;;;7.90;99.90;;;;;;7360062;32;20313;-57
2023/12/27 20:05:34;;;;;;;4.37;1.75;;;8.00;99.90;;;;;;7361903;32;20258;-54
2023/12/27 20:09:36;;;;;;;5.68;1.50;;;8.00;99.90;;;;;;7356596;32;20107;-56
2023/12/27 20:13:40;;;;;;;4.40;1.70;;;7.90;99.90;;;;;;7364594;32;20098;-57
2023/12/27 20:17:42;;;;;;;4.30;1.58;;;7.90;99.90;;;;;;7365509;32;20210;-56
2023/12/27 20:21:44;;;;;;;4.35;1.60;;;7.90;99.90;;;;;;7360436;32;20103;-56
2023/12/27 20:25:48;;;;;;;4.20;1.60;;;7.90;99.90;;;;;;7356080;32;20099;-56
2023/12/27 20:29:51;;;;;;;4.32;1.80;;;8.00;99.90;;;;;;7360362;32;20673;-56
2023/12/27 20:33:53;;;;;;;4.37;1.50;;;8.10;99.90;;;;;;7363487;32;20102;-55
2023/12/27 20:37:55;;;;;;;6.32;1.90;;;8.00;99.90;;;;;;7367203;32;20194;-57
2023/12/27 20:41:58;;;;;;;4.03;1.33;;;8.00;99.90;;;;;;7367250;32;20226;-57
2023/12/27 20:45:59;;;;;;;3.20;1.25;;;8.00;99.90;;;;;;7367435;32;20106;-56
2023/12/27 20:50:01;;;;;;;3.72;1.33;;;8.00;99.90;;;;;;7358735;32;20103;-56
2023/12/27 20:54:04;;;;;;;4.75;1.60;;;8.00;99.90;;;;;;7357721;32;20833;-57
2023/12/27 20:58:06;;;;;;;3.50;1.37;;;8.00;99.90;;;;;;7369273;32;22393;-56
2023/12/27 21:02:08;;;;;;;4.12;1.50;;;8.00;99.90;;;;;;7355462;32;20293;-58
2023/12/27 21:06:16;;;;;;;5.53;1.75;;;8.00;99.90;;;;;;7352729;32;20214;-58
2023/12/27 21:10:19;;;;;;;4.55;1.50;;;8.00;99.90;;;;;;7363165;32;20162;-58
2023/12/27 21:14:21;;;;;;;4.18;1.67;;;8.00;99.90;;;;;;7362354;32;20157;-58
2023/12/27 21:18:23;;;;;;;2.75;1.25;;;7.90;99.90;;;;;;7366539;32;20106;-57